Time;durP1;ratioP1;P1;durP2;ratioP2;P2;SDS_P1;SDS_P2;PMS_P1;PMS_P2;Temp;Humidity;BMP_temperature;BMP_pressure;BME280_temperature;BME280_humidity;BME280_pressure;Samples;Min_cycle;Max_cycle;Signal;HPM_P1;HPM_P2
2022/12/27 00:00:55;;;;;;;;;;;;;;;;;;1882397;28;7010;-62
2022/12/27 00:01:53;;;;;;;;;;;;;;;;;;1882741;28;7013;-63
2022/12/27 00:02:50;;;;;;;;;;;;;;;;;;1882005;28;7132;-62
2022/12/27 00:03:48;;;;;;;;;;;;;;;;;;1882420;28;7096;-63
2022/12/27 00:04:45;;;;;;;;;;;;;;;;;;1882543;28;7089;-63
2022/12/27 00:05:46;;;;;;;;;;;;;;;;;;1882401;28;9053;-63
2022/12/27 00:06:44;;;;;;;;;;;;;;;;;;1881548;28;7122;-61
2022/12/27 00:07:41;;;;;;;;;;;;;;;;;;1882141;28;8000;-63
2022/12/27 00:08:39;;;;;;;;;;;;;;;;;;1882243;28;7006;-63
2022/12/27 00:09:36;;;;;;;;;;;;;;;;;;1877664;28;7184;-63
2022/12/27 00:10:34;;;;;;;;;;;;;;;;;;1880535;28;7010;-63
2022/12/27 00:11:31;;;;;;;;;;;;;;;;;;1881342;28;7133;-62
2022/12/27 00:12:29;;;;;;;;;;;;;;;;;;1882122;28;7046;-62
2022/12/27 00:13:26;;;;;;;;;;;;;;;;;;1882708;28;8024;-62
2022/12/27 00:14:23;;;;;;;;;;;;;;;;;;1882139;28;7125;-63
2022/12/27 00:15:21;;;;;;;;;;;;;;;;;;1882255;28;8408;-63
2022/12/27 00:16:19;;;;;;;;;;;;;;;;;;1880719;28;7114;-63
2022/12/27 00:17:17;;;;;;;;;;;;;;;;;;1881485;28;7884;-63
2022/12/27 00:18:14;;;;;;;;;;;;;;;;;;1881857;28;8047;-62
2022/12/27 00:19:11;;;;;;;;;;;;;;;;;;1882237;28;7005;-61
2022/12/27 00:20:09;;;;;;;;;;;;;;;;;;1882588;28;7051;-61
2022/12/27 00:21:10;;;;;;;;;;;;;;;;;;1882975;28;7046;-61
2022/12/27 00:22:08;;;;;;;;;;;;;;;;;;1881062;28;7093;-61
2022/12/27 00:23:05;;;;;;;;;;;;;;;;;;1881918;28;7023;-61
2022/12/27 00:24:03;;;;;;;;;;;;;;;;;;1882183;28;7113;-63
2022/12/27 00:25:01;;;;;;;;;;;;;;;;;;1881616;28;7006;-63
2022/12/27 00:26:00;;;;;;;;;;;;;;;;;;1882003;28;8047;-61
2022/12/27 00:26:57;;;;;;;;;;;;;;;;;;1882686;28;7001;-63
2022/12/27 00:27:54;;;;;;;;;;;;;;;;;;1881781;28;7416;-63
2022/12/27 00:28:53;;;;;;;;;;;;;;;;;;1882525;28;7014;-63
2022/12/27 00:29:50;;;;;;;;;;;;;;;;;;1881953;28;7005;-62
2022/12/27 00:30:52;;;;;;;;;;;;;;;;;;1881889;28;7109;-63
2022/12/27 00:31:50;;;;;;;;;;;;;;;;;;1881849;28;7144;-62
2022/12/27 00:32:47;;;;;;;;;;;;;;;;;;1882439;28;7158;-62
2022/12/27 00:33:45;;;;;;;;;;;;;;;;;;1882590;28;7046;-62
2022/12/27 00:34:43;;;;;;;;;;;;;;;;;;1882417;28;7845;-63
2022/12/27 00:35:40;;;;;;;;;;;;;;;;;;1882391;28;7038;-62
2022/12/27 00:36:37;;;;;;;;;;;;;;;;;;1882330;28;7971;-62
2022/12/27 00:37:35;;;;;;;;;;;;;;;;;;1882122;28;7051;-62
2022/12/27 00:38:33;;;;;;;;;;;;;;;;;;1881935;28;7092;-62
2022/12/27 00:39:30;;;;;;;;;;;;;;;;;;1881943;28;7101;-61
2022/12/27 00:40:28;;;;;;;;;;;;;;;;;;1881537;28;7341;-62
2022/12/27 00:41:25;;;;;;;;;;;;;;;;;;1882616;28;7984;-63
2022/12/27 00:42:23;;;;;;;;;;;;;;;;;;1882029;28;7122;-63
2022/12/27 00:43:20;;;;;;;;;;;;;;;;;;1881600;28;7042;-63
2022/12/27 00:44:17;;;;;;;;;;;;;;;;;;1881611;28;7168;-62
2022/12/27 00:45:15;;;;;;;;;;;;;;;;;;1882182;28;7017;-62
2022/12/27 00:46:13;;;;;;;;;;;;;;;;;;1882080;28;7142;-63
2022/12/27 00:47:10;;;;;;;;;;;;;;;;;;1882274;28;7010;-62
2022/12/27 00:48:08;;;;;;;;;;;;;;;;;;1880951;28;7100;-62
2022/12/27 00:49:05;;;;;;;;;;;;;;;;;;1882021;28;7014;-61
2022/12/27 00:50:03;;;;;;;;;;;;;;;;;;1881926;28;7112;-63
2022/12/27 00:51:12;;;;;;;;;;;;;;;;;;1881770;28;7042;-61
2022/12/27 00:52:09;;;;;;;;;;;;;;;;;;1881423;28;7113;-62
2022/12/27 00:53:07;;;;;;;;;;;;;;;;;;1882175;28;7299;-62
2022/12/27 00:54:06;;;;;;;;;;;;;;;;;;1881874;28;7171;-62
2022/12/27 00:55:03;;;;;;;;;;;;;;;;;;1882115;28;7122;-63
2022/12/27 00:56:05;;;;;;;;;;;;;;;;;;1880672;28;7150;-63
2022/12/27 00:57:04;;;;;;;;;;;;;;;;;;1881319;28;7106;-62
2022/12/27 00:58:03;;;;;;;;;;;;;;;;;;1882262;28;7002;-63
2022/12/27 00:59:02;;;;;;;;;;;;;;;;;;1881960;28;7144;-63
2022/12/27 01:00:00;;;;;;;;;;;;;;;;;;1880877;28;7070;-61
2022/12/27 01:01:13;;;;;;;;;;;;;;;;;;1881928;28;7089;-62
2022/12/27 01:02:11;;;;;;;;;;;;;;;;;;1881695;28;8116;-63
2022/12/27 01:03:08;;;;;;;;;;;;;;;;;;1882039;28;7109;-61
2022/12/27 01:04:06;;;;;;;;;;;;;;;;;;1882745;28;7089;-63
2022/12/27 01:05:04;;;;;;;;;;;;;;;;;;1882060;28;7098;-62
2022/12/27 01:06:03;;;;;;;;;;;;;;;;;;1881976;28;7005;-63
2022/12/27 01:07:01;;;;;;;;;;;;;;;;;;1882953;28;7219;-63
2022/12/27 01:07:59;;;;;;;;;;;;;;;;;;1881452;28;7351;-62
2022/12/27 01:08:56;;;;;;;;;;;;;;;;;;1882025;28;8008;-63
2022/12/27 01:09:54;;;;;;;;;;;;;;;;;;1874082;28;7092;-62
2022/12/27 01:10:51;;;;;;;;;;;;;;;;;;1879239;28;7014;-63
2022/12/27 01:11:48;;;;;;;;;;;;;;;;;;1881854;28;7644;-63
2022/12/27 01:12:46;;;;;;;;;;;;;;;;;;1881968;28;7122;-62
2022/12/27 01:13:44;;;;;;;;;;;;;;;;;;1881085;28;7112;-63
2022/12/27 01:14:41;;;;;;;;;;;;;;;;;;1877854;28;7132;-62
2022/12/27 01:15:40;;;;;;;;;;;;;;;;;;1879242;28;7010;-62
2022/12/27 01:16:39;;;;;;;;;;;;;;;;;;1882251;28;8536;-62
2022/12/27 01:17:36;;;;;;;;;;;;;;;;;;1881042;28;7995;-63
2022/12/27 01:18:34;;;;;;;;;;;;;;;;;;1881640;28;7435;-62
2022/12/27 01:19:33;;;;;;;;;;;;;;;;;;1881550;28;7042;-62
2022/12/27 01:20:31;;;;;;;;;;;;;;;;;;1881834;28;7079;-61
2022/12/27 01:21:29;;;;;;;;;;;;;;;;;;1882014;28;7010;-62
2022/12/27 01:22:27;;;;;;;;;;;;;;;;;;1880998;28;7058;-62
2022/12/27 01:23:26;;;;;;;;;;;;;;;;;;1880892;28;7043;-63
2022/12/27 01:24:24;;;;;;;;;;;;;;;;;;1881974;28;8023;-63
2022/12/27 01:25:21;;;;;;;;;;;;;;;;;;1881491;28;8017;-63
2022/12/27 01:26:20;;;;;;;;;;;;;;;;;;1881759;28;7062;-63
2022/12/27 01:27:18;;;;;;;;;;;;;;;;;;1881102;28;7097;-63
2022/12/27 01:28:15;;;;;;;;;;;;;;;;;;1881684;28;7149;-61
2022/12/27 01:29:12;;;;;;;;;;;;;;;;;;1881388;28;7100;-63
2022/12/27 01:30:10;;;;;;;;;;;;;;;;;;1880574;28;7801;-63
2022/12/27 01:31:10;;;;;;;;;;;;;;;;;;1874330;28;8143;-63
2022/12/27 01:32:07;;;;;;;;;;;;;;;;;;1881819;28;7410;-62
2022/12/27 01:33:05;;;;;;;;;;;;;;;;;;1881949;28;7010;-62
2022/12/27 01:34:02;;;;;;;;;;;;;;;;;;1882037;28;8476;-63
2022/12/27 01:35:00;;;;;;;;;;;;;;;;;;1881992;28;7010;-62
2022/12/27 01:35:57;;;;;;;;;;;;;;;;;;1882084;28;7006;-62
2022/12/27 01:36:54;;;;;;;;;;;;;;;;;;1882098;28;7448;-62
2022/12/27 01:37:52;;;;;;;;;;;;;;;;;;1881870;28;8249;-62
2022/12/27 01:38:49;;;;;;;;;;;;;;;;;;1882507;28;8030;-63
2022/12/27 01:39:47;;;;;;;;;;;;;;;;;;1881834;28;7138;-62
2022/12/27 01:40:44;;;;;;;;;;;;;;;;;;1882037;28;7046;-63
2022/12/27 01:42:58;;;;;;;;;;;;;;;;;;1881205;28;7516;-63
2022/12/27 01:43:56;;;;;;;;;;;;;;;;;;1880622;28;7992;-63
2022/12/27 01:44:57;;;;;;;;;;;;;;;;;;1882111;28;8104;-62
2022/12/27 01:45:54;;;;;;;;;;;;;;;;;;1882504;28;7257;-63
2022/12/27 01:46:51;;;;;;;;;;;;;;;;;;1882247;28;7356;-63
2022/12/27 01:47:53;;;;;;;;;;;;;;;;;;1881835;28;7018;-63
2022/12/27 01:48:51;;;;;;;;;;;;;;;;;;1881136;28;8051;-63
2022/12/27 01:49:48;;;;;;;;;;;;;;;;;;1881657;28;7096;-62
2022/12/27 01:50:52;;;;;;;;;;;;;;;;;;1881473;28;7109;-62
2022/12/27 01:51:50;;;;;;;;;;;;;;;;;;1881290;28;7057;-61
2022/12/27 01:52:50;;;;;;;;;;;;;;;;;;1882175;28;7010;-63
2022/12/27 01:53:49;;;;;;;;;;;;;;;;;;1876519;28;7184;-63
2022/12/27 01:54:47;;;;;;;;;;;;;;;;;;1875208;28;7125;-63
2022/12/27 01:55:48;;;;;;;;;;;;;;;;;;1880642;28;7087;-63
2022/12/27 01:56:45;;;;;;;;;;;;;;;;;;1881045;28;7289;-62
2022/12/27 01:57:44;;;;;;;;;;;;;;;;;;1881390;28;7101;-62
2022/12/27 01:58:43;;;;;;;;;;;;;;;;;;1881253;28;7098;-63
2022/12/27 01:59:41;;;;;;;;;;;;;;;;;;1881572;28;8058;-62
2022/12/27 02:00:42;;;;;;;;;;;;;;;;;;1883842;28;7002;-62
2022/12/27 02:01:43;;;;;;;;;;;;;;;;;;1882493;28;7006;-61
2022/12/27 02:02:41;;;;;;;;;;;;;;;;;;1883187;28;7006;-61
2022/12/27 02:03:42;;;;;;;;;;;;;;;;;;1883110;28;7114;-63
2022/12/27 02:04:40;;;;;;;;;;;;;;;;;;1883396;28;7062;-63
2022/12/27 02:05:40;;;;;;;;;;;;;;;;;;1883161;28;7006;-62
2022/12/27 02:06:38;;;;;;;;;;;;;;;;;;1883205;28;7120;-62
2022/12/27 02:07:48;;;;;;;;;;;;;;;;;;1870846;28;7006;-63
2022/12/27 02:08:55;;;;;;;;;;;;;;;;;;1869036;28;7090;-63
2022/12/27 02:09:57;;;;;;;;;;;;;;;;;;1882446;28;7098;-62
2022/12/27 02:10:56;;;;;;;;;;;;;;;;;;1883172;28;8026;-62
2022/12/27 02:11:55;;;;;;;;;;;;;;;;;;1883441;28;7005;-62
2022/12/27 02:12:53;;;;;;;;;;;;;;;;;;1882682;28;7105;-62
2022/12/27 02:13:51;;;;;;;;;;;;;;;;;;1882474;28;7006;-63
2022/12/27 02:14:48;;;;;;;;;;;;;;;;;;1882061;28;7165;-61
2022/12/27 02:15:46;;;;;;;;;;;;;;;;;;1883289;28;7228;-62
2022/12/27 02:16:43;;;;;;;;;;;;;;;;;;1882636;28;7042;-62
2022/12/27 02:17:41;;;;;;;;;;;;;;;;;;1883096;28;7006;-62
2022/12/27 02:18:38;;;;;;;;;;;;;;;;;;1883014;28;7101;-63
2022/12/27 02:19:41;;;;;;;;;;;;;;;;;;1883342;28;7117;-63
2022/12/27 02:20:56;;;;;;;;;;;;;;;;;;1883021;28;7010;-63
2022/12/27 02:22:13;;;;;;;;;;;;;;;;;;1882830;28;8670;-63
2022/12/27 02:25:09;;;;;;;;;;;;;;;;;;1882762;28;7010;-61
2022/12/27 02:26:26;;;;;;;;;;;;;;;;;;1883162;28;7219;-62
2022/12/27 02:27:24;;;;;;;;;;;;;;;;;;1883442;28;8028;-63
2022/12/27 02:28:27;;;;;;;;;;;;;;;;;;1882921;28;8034;-62
2022/12/27 02:29:42;;;;;;;;;;;;;;;;;;1883036;28;7010;-62
2022/12/27 02:30:43;;;;;;;;;;;;;;;;;;1882611;28;8079;-62
2022/12/27 02:31:41;;;;;;;;;;;;;;;;;;1883117;28;7006;-61
2022/12/27 02:32:47;;;;;;;;;;;;;;;;;;1883132;28;7013;-63
2022/12/27 02:33:48;;;;;;;;;;;;;;;;;;1883143;28;7122;-62
2022/12/27 02:34:51;;;;;;;;;;;;;;;;;;1882742;28;7118;-62
2022/12/27 02:35:59;;;;;;;;;;;;;;;;;;1882911;28;8014;-63
2022/12/27 02:37:01;;;;;;;;;;;;;;;;;;1883070;28;9287;-63
2022/12/27 02:38:05;;;;;;;;;;;;;;;;;;1882472;28;7400;-63
2022/12/27 02:39:04;;;;;;;;;;;;;;;;;;1883285;28;7789;-62
2022/12/27 02:53:59;;;;;;;;;;;;;;;;;;1882490;28;7013;-62
2022/12/27 02:55:15;;;;;;;;;;;;;;;;;;1882568;28;7101;-62
2022/12/27 02:57:40;;;;;;;;;;;;;;;;;;1882042;28;7150;-62
2022/12/27 02:58:37;;;;;;;;;;;;;;;;;;1883217;28;7115;-61
2022/12/27 02:59:35;;;;;;;;;;;;;;;;;;1882839;28;7121;-61
2022/12/27 03:03:57;;;;;;;;;;;;;;;;;;1882912;28;7326;-62
2022/12/27 03:05:06;;;;;;;;;;;;;;;;;;1882710;28;7097;-63
2022/12/27 03:07:48;;;;;;;;;;;;;;;;;;1881156;28;7006;-61
2022/12/27 03:09:04;;;;;;;;;;;;;;;;;;1883250;28;7013;-62
2022/12/27 03:16:06;;;;;;;;;;;;;;;;;;1882424;28;7381;-62
2022/12/27 03:17:09;;;;;;;;;;;;;;;;;;1879030;28;7104;-62
2022/12/27 03:18:12;;;;;;;;;;;;;;;;;;1881918;28;7005;-62
2022/12/27 03:26:07;;;;;;;;;;;;;;;;;;1882089;28;8493;-63
2022/12/27 03:27:09;;;;;;;;;;;;;;;;;;1882796;28;7203;-62
2022/12/27 03:33:26;;;;;;;;;;;;;;;;;;1882741;28;7050;-61
2022/12/27 03:34:34;;;;;;;;;;;;;;;;;;1882120;28;8028;-62
2022/12/27 03:35:37;;;;;;;;;;;;;;;;;;1882803;28;9126;-62
2022/12/27 03:38:02;;;;;;;;;;;;;;;;;;1882404;28;8094;-60
2022/12/27 03:39:12;;;;;;;;;;;;;;;;;;1881984;28;7010;-62
2022/12/27 03:40:10;;;;;;;;;;;;;;;;;;1882377;28;8054;-61
2022/12/27 03:44:03;;;;;;;;;;;;;;;;;;1859362;29;7039;-63
2022/12/27 03:45:01;;;;;;;;;;;;;;;;;;1873909;28;7030;-63
2022/12/27 03:47:35;;;;;;;;;;;;;;;;;;1881128;28;7038;-63
2022/12/27 03:48:39;;;;;;;;;;;;;;;;;;1881074;28;7096;-63
2022/12/27 03:49:49;;;;;;;;;;;;;;;;;;1882333;28;7010;-63
2022/12/27 03:50:53;;;;;;;;;;;;;;;;;;1882331;28;7050;-63
2022/12/27 03:52:00;;;;;;;;;;;;;;;;;;1882069;28;8325;-62
2022/12/27 03:53:02;;;;;;;;;;;;;;;;;;1882079;28;7344;-61
2022/12/27 03:54:05;;;;;;;;;;;;;;;;;;1880812;28;7014;-63
2022/12/27 03:55:03;;;;;;;;;;;;;;;;;;1882434;28;7002;-62
2022/12/27 03:56:02;;;;;;;;;;;;;;;;;;1882180;28;7005;-63
2022/12/27 03:57:02;;;;;;;;;;;;;;;;;;1882380;28;8993;-63
2022/12/27 03:57:59;;;;;;;;;;;;;;;;;;1881750;28;7010;-63
2022/12/27 03:58:58;;;;;;;;;;;;;;;;;;1882438;28;7006;-63
2022/12/27 03:59:56;;;;;;;;;;;;;;;;;;1882402;28;8038;-63
2022/12/27 04:00:53;;;;;;;;;;;;;;;;;;1882628;28;8086;-63
2022/12/27 04:01:51;;;;;;;;;;;;;;;;;;1882287;28;7031;-61
2022/12/27 04:02:49;;;;;;;;;;;;;;;;;;1882340;28;7006;-61
2022/12/27 04:03:46;;;;;;;;;;;;;;;;;;1882429;28;7042;-63
2022/12/27 04:04:44;;;;;;;;;;;;;;;;;;1881832;28;9038;-62
2022/12/27 04:05:41;;;;;;;;;;;;;;;;;;1882717;28;7010;-62
2022/12/27 04:06:38;;;;;;;;;;;;;;;;;;1881990;28;7010;-61
2022/12/27 04:07:36;;;;;;;;;;;;;;;;;;1882335;28;7006;-62
2022/12/27 04:35:07;;;;;;;;;;;;;;;;;;1882005;28;7197;-63
2022/12/27 04:36:04;;;;;;;;;;;;;;;;;;1881852;28;7096;-62
2022/12/27 04:37:03;;;;;;;;;;;;;;;;;;1882322;28;7017;-63
2022/12/27 04:38:00;;;;;;;;;;;;;;;;;;1881909;28;7100;-62
2022/12/27 04:38:57;;;;;;;;;;;;;;;;;;1882399;28;7092;-62
2022/12/27 04:55:35;;;;;;;;;;;;;;;;;;1874042;28;7046;-63
2022/12/27 04:56:32;;;;;;;;;;;;;;;;;;1874836;28;7096;-62
2022/12/27 04:57:30;;;;;;;;;;;;;;;;;;1874967;28;7009;-62
2022/12/27 04:58:27;;;;;;;;;;;;;;;;;;1874449;28;7010;-63
2022/12/27 05:02:02;;;;;;;;;;;;;;;;;;1874447;28;7059;-63
2022/12/27 05:03:05;;;;;;;;;;;;;;;;;;1874541;28;7097;-63
2022/12/27 05:04:03;;;;;;;;;;;;;;;;;;1873640;28;7010;-62
2022/12/27 05:05:01;;;;;;;;;;;;;;;;;;1874599;28;8083;-62
2022/12/27 05:05:59;;;;;;;;;;;;;;;;;;1874933;28;8060;-62
2022/12/27 05:13:58;;;;;;;;;;;;;;;;;;1874354;28;7120;-61
2022/12/27 05:14:36;;;;;;;;;;;;;;;;;;1874972;28;7097;-62
2022/12/27 05:15:34;;;;;;;;;;;;;;;;;;1874520;28;8047;-63
2022/12/27 05:16:38;;;;;;;;;;;;;;;;;;1873379;28;7014;-63
2022/12/27 05:17:35;;;;;;;;;;;;;;;;;;1874783;28;8061;-63
2022/12/27 05:18:33;;;;;;;;;;;;;;;;;;1874934;28;7994;-62
2022/12/27 05:19:30;;;;;;;;;;;;;;;;;;1875312;28;7030;-62
2022/12/27 05:20:27;;;;;;;;;;;;;;;;;;1875910;28;7038;-62
2022/12/27 05:21:25;;;;;;;;;;;;;;;;;;1874290;28;7093;-63
2022/12/27 05:26:18;;;;;;;;;;;;;;;;;;1873758;29;7101;-63
2022/12/27 05:27:16;;;;;;;;;;;;;;;;;;1875193;29;7093;-62
2022/12/27 05:28:13;;;;;;;;;;;;;;;;;;1874661;28;7043;-63
2022/12/27 05:29:11;;;;;;;;;;;;;;;;;;1874756;28;7366;-63
2022/12/27 05:30:08;;;;;;;;;;;;;;;;;;1874562;29;8009;-62
2022/12/27 05:31:06;;;;;;;;;;;;;;;;;;1875007;29;7018;-63
2022/12/27 05:32:03;;;;;;;;;;;;;;;;;;1874574;28;7313;-62
2022/12/27 05:33:09;;;;;;;;;;;;;;;;;;1874450;28;8111;-61
2022/12/27 05:34:07;;;;;;;;;;;;;;;;;;1874797;28;7147;-62
2022/12/27 05:35:04;;;;;;;;;;;;;;;;;;1875205;28;7117;-61
2022/12/27 05:36:02;;;;;;;;;;;;;;;;;;1876562;28;7471;-61
2022/12/27 05:36:59;;;;;;;;;;;;;;;;;;1876261;28;7026;-62
2022/12/27 05:37:56;;;;;;;;;;;;;;;;;;1876409;28;7006;-62
2022/12/27 05:38:54;;;;;;;;;;;;;;;;;;1876528;28;7058;-63
2022/12/27 05:39:51;;;;;;;;;;;;;;;;;;1876575;28;7039;-62
2022/12/27 05:40:48;;;;;;;;;;;;;;;;;;1876796;28;8048;-62
2022/12/27 05:41:46;;;;;;;;;;;;;;;;;;1875603;28;8318;-61
2022/12/27 05:42:43;;;;;;;;;;;;;;;;;;1875963;28;7010;-63
2022/12/27 05:43:41;;;;;;;;;;;;;;;;;;1885019;28;7006;-63
2022/12/27 05:44:38;;;;;;;;;;;;;;;;;;1889744;28;7093;-63
2022/12/27 05:45:35;;;;;;;;;;;;;;;;;;1887544;28;7097;-62
2022/12/27 05:46:34;;;;;;;;;;;;;;;;;;1883735;28;7152;-62
2022/12/27 05:47:31;;;;;;;;;;;;;;;;;;1889400;28;7092;-63
2022/12/27 05:48:29;;;;;;;;;;;;;;;;;;1886221;28;7113;-62
2022/12/27 05:49:26;;;;;;;;;;;;;;;;;;1885747;28;7876;-63
2022/12/27 05:50:24;;;;;;;;;;;;;;;;;;1886902;28;7069;-63
2022/12/27 05:51:21;;;;;;;;;;;;;;;;;;1889867;28;8015;-62
2022/12/27 05:52:18;;;;;;;;;;;;;;;;;;1887391;28;7245;-63
2022/12/27 05:53:16;;;;;;;;;;;;;;;;;;1891094;28;7121;-62
2022/12/27 05:54:13;;;;;;;;;;;;;;;;;;1887301;28;7075;-62
2022/12/27 05:55:11;;;;;;;;;;;;;;;;;;1891182;28;7057;-63
2022/12/27 05:56:13;;;;;;;;;;;;;;;;;;1886325;28;7014;-61
2022/12/27 05:57:10;;;;;;;;;;;;;;;;;;1883287;28;8020;-62
2022/12/27 05:58:07;;;;;;;;;;;;;;;;;;1886558;28;8079;-63
2022/12/27 05:59:06;;;;;;;;;;;;;;;;;;1883500;28;7006;-63
2022/12/27 06:00:05;;;;;;;;;;;;;;;;;;1887378;28;7996;-62
2022/12/27 06:01:07;;;;;;;;;;;;;;;;;;1888382;28;7006;-63
2022/12/27 06:02:04;;;;;;;;;;;;;;;;;;1888517;28;7317;-62
2022/12/27 06:03:02;;;;;;;;;;;;;;;;;;1883984;28;7018;-63
2022/12/27 06:04:00;;;;;;;;;;;;;;;;;;1885395;28;7006;-61
2022/12/27 06:04:58;;;;;;;;;;;;;;;;;;1887267;28;7251;-62
2022/12/27 06:06:00;;;;;;;;;;;;;;;;;;1887206;28;7042;-63
2022/12/27 06:06:58;;;;;;;;;;;;;;;;;;1890916;28;7999;-62
2022/12/27 06:07:55;;;;;;;;;;;;;;;;;;1886358;28;7114;-63
2022/12/27 06:08:53;;;;;;;;;;;;;;;;;;1882957;28;7064;-62
2022/12/27 06:09:51;;;;;;;;;;;;;;;;;;1886251;28;7002;-63
2022/12/27 06:10:48;;;;;;;;;;;;;;;;;;1890775;28;7005;-62
2022/12/27 06:11:45;;;;;;;;;;;;;;;;;;1890959;28;7203;-63
2022/12/27 06:12:43;;;;;;;;;;;;;;;;;;1891094;28;7067;-63
2022/12/27 06:13:41;;;;;;;;;;;;;;;;;;1889052;28;8078;-62
2022/12/27 06:14:40;;;;;;;;;;;;;;;;;;1890595;28;7117;-61
2022/12/27 06:15:37;;;;;;;;;;;;;;;;;;1890885;28;8029;-62
2022/12/27 06:16:35;;;;;;;;;;;;;;;;;;1889379;28;7010;-64
2022/12/27 06:17:32;;;;;;;;;;;;;;;;;;1884286;28;7009;-62
2022/12/27 06:18:31;;;;;;;;;;;;;;;;;;1885348;28;8089;-62
2022/12/27 06:19:28;;;;;;;;;;;;;;;;;;1889725;28;7380;-62
2022/12/27 06:20:26;;;;;;;;;;;;;;;;;;1887242;28;7005;-62
2022/12/27 06:21:23;;;;;;;;;;;;;;;;;;1886228;28;7092;-62
2022/12/27 06:22:20;;;;;;;;;;;;;;;;;;1886082;28;7093;-62
2022/12/27 06:23:18;;;;;;;;;;;;;;;;;;1883077;28;7297;-62
2022/12/27 06:24:15;;;;;;;;;;;;;;;;;;1882973;28;7009;-63
2022/12/27 06:25:13;;;;;;;;;;;;;;;;;;1886657;28;7368;-62
2022/12/27 06:26:12;;;;;;;;;;;;;;;;;;1882698;28;7066;-62
2022/12/27 06:27:09;;;;;;;;;;;;;;;;;;1884873;28;8011;-62
2022/12/27 06:28:07;;;;;;;;;;;;;;;;;;1890689;28;8032;-62
2022/12/27 06:29:04;;;;;;;;;;;;;;;;;;1886422;28;7014;-62
2022/12/27 06:30:03;;;;;;;;;;;;;;;;;;1884695;28;7255;-63
2022/12/27 06:31:01;;;;;;;;;;;;;;;;;;1885135;28;7014;-62
2022/12/27 06:31:58;;;;;;;;;;;;;;;;;;1886851;28;7391;-63
2022/12/27 06:32:56;;;;;;;;;;;;;;;;;;1889217;28;7010;-64
2022/12/27 06:33:54;;;;;;;;;;;;;;;;;;1890557;28;7129;-63
2022/12/27 06:34:51;;;;;;;;;;;;;;;;;;1890907;28;7109;-63
2022/12/27 06:35:49;;;;;;;;;;;;;;;;;;1890145;28;7100;-62
2022/12/27 06:36:49;;;;;;;;;;;;;;;;;;1889727;28;7030;-63
2022/12/27 06:37:47;;;;;;;;;;;;;;;;;;1883459;28;7289;-62
2022/12/27 06:38:45;;;;;;;;;;;;;;;;;;1883953;28;8324;-62
2022/12/27 06:39:43;;;;;;;;;;;;;;;;;;1888108;28;7113;-63
2022/12/27 06:40:40;;;;;;;;;;;;;;;;;;1886114;28;7014;-63
2022/12/27 06:41:37;;;;;;;;;;;;;;;;;;1886715;28;7120;-63
2022/12/27 06:42:35;;;;;;;;;;;;;;;;;;1890378;28;7093;-62
2022/12/27 06:43:32;;;;;;;;;;;;;;;;;;1889745;28;7980;-62
2022/12/27 06:44:30;;;;;;;;;;;;;;;;;;1886864;28;7882;-61
2022/12/27 06:45:27;;;;;;;;;;;;;;;;;;1888610;28;8035;-62
2022/12/27 06:46:25;;;;;;;;;;;;;;;;;;1888716;28;7072;-63
2022/12/27 06:47:22;;;;;;;;;;;;;;;;;;1883267;28;7100;-61
2022/12/27 06:48:19;;;;;;;;;;;;;;;;;;1888005;28;7093;-61
2022/12/27 06:49:17;;;;;;;;;;;;;;;;;;1884523;28;7100;-63
2022/12/27 06:50:14;;;;;;;;;;;;;;;;;;1884363;28;7046;-63
2022/12/27 06:51:13;;;;;;;;;;;;;;;;;;1882547;28;7014;-63
2022/12/27 06:52:11;;;;;;;;;;;;;;;;;;1882848;28;8100;-62
2022/12/27 06:53:08;;;;;;;;;;;;;;;;;;1886939;28;8063;-62
2022/12/27 06:54:05;;;;;;;;;;;;;;;;;;1887131;28;7009;-62
2022/12/27 06:55:03;;;;;;;;;;;;;;;;;;1885962;28;7014;-62
2022/12/27 06:56:06;;;;;;;;;;;;;;;;;;1887100;28;7014;-62
2022/12/27 06:57:04;;;;;;;;;;;;;;;;;;1887215;28;7013;-63
2022/12/27 06:58:01;;;;;;;;;;;;;;;;;;1882493;28;7093;-61
2022/12/27 06:58:58;;;;;;;;;;;;;;;;;;1888877;28;7140;-62
2022/12/27 06:59:56;;;;;;;;;;;;;;;;;;1884422;28;7100;-63
2022/12/27 07:00:53;;;;;;;;;;;;;;;;;;1882800;28;7074;-62
2022/12/27 07:01:51;;;;;;;;;;;;;;;;;;1885146;28;7198;-61
2022/12/27 07:02:48;;;;;;;;;;;;;;;;;;1882835;28;7046;-62
2022/12/27 07:03:50;;;;;;;;;;;;;;;;;;1882626;28;7138;-62
2022/12/27 07:04:47;;;;;;;;;;;;;;;;;;1889304;28;8041;-62
2022/12/27 07:05:44;;;;;;;;;;;;;;;;;;1890027;28;7062;-63
2022/12/27 07:06:42;;;;;;;;;;;;;;;;;;1885589;28;7157;-61
2022/12/27 07:07:39;;;;;;;;;;;;;;;;;;1881225;28;7108;-61
2022/12/27 07:08:37;;;;;;;;;;;;;;;;;;1885256;28;8364;-63
2022/12/27 07:09:34;;;;;;;;;;;;;;;;;;1883020;28;7021;-62
2022/12/27 07:10:31;;;;;;;;;;;;;;;;;;1882640;28;8121;-62
2022/12/27 07:11:31;;;;;;;;;;;;;;;;;;1882923;28;7078;-62
2022/12/27 07:12:28;;;;;;;;;;;;;;;;;;1882896;28;8035;-62
2022/12/27 07:13:33;;;;;;;;;;;;;;;;;;1881514;28;7029;-62
2022/12/27 07:14:31;;;;;;;;;;;;;;;;;;1884324;28;7045;-63
2022/12/27 07:15:28;;;;;;;;;;;;;;;;;;1886329;28;8041;-62
2022/12/27 07:16:27;;;;;;;;;;;;;;;;;;1882250;28;7013;-61
2022/12/27 07:17:25;;;;;;;;;;;;;;;;;;1887413;28;7324;-63
2022/12/27 07:18:22;;;;;;;;;;;;;;;;;;1881950;28;7131;-62
2022/12/27 07:19:19;;;;;;;;;;;;;;;;;;1885850;28;7006;-63
2022/12/27 07:20:17;;;;;;;;;;;;;;;;;;1889011;28;8980;-62
2022/12/27 07:21:16;;;;;;;;;;;;;;;;;;1883383;28;7070;-62
2022/12/27 07:22:14;;;;;;;;;;;;;;;;;;1889275;28;8089;-62
2022/12/27 07:23:13;;;;;;;;;;;;;;;;;;1882346;28;7070;-62
2022/12/27 07:24:15;;;;;;;;;;;;;;;;;;1882706;28;7117;-62
2022/12/27 07:25:13;;;;;;;;;;;;;;;;;;1884496;28;7093;-62
2022/12/27 07:26:12;;;;;;;;;;;;;;;;;;1884806;28;7014;-62
2022/12/27 07:27:10;;;;;;;;;;;;;;;;;;1889616;28;7006;-62
2022/12/27 07:28:07;;;;;;;;;;;;;;;;;;1884481;28;7002;-62
2022/12/27 07:29:05;;;;;;;;;;;;;;;;;;1884921;28;7113;-62
2022/12/27 07:30:03;;;;;;;;;;;;;;;;;;1889457;28;7380;-62
2022/12/27 07:31:08;;;;;;;;;;;;;;;;;;1889305;28;7121;-62
2022/12/27 07:32:05;;;;;;;;;;;;;;;;;;1883228;28;8020;-61
2022/12/27 07:33:03;;;;;;;;;;;;;;;;;;1881958;28;7089;-62
2022/12/27 07:34:02;;;;;;;;;;;;;;;;;;1886188;28;8023;-62
2022/12/27 07:34:59;;;;;;;;;;;;;;;;;;1889133;28;8280;-62
2022/12/27 07:35:59;;;;;;;;;;;;;;;;;;1888328;28;7101;-62
2022/12/27 07:36:56;;;;;;;;;;;;;;;;;;1885696;28;7135;-62
2022/12/27 07:37:53;;;;;;;;;;;;;;;;;;1885612;28;8034;-62
2022/12/27 07:38:51;;;;;;;;;;;;;;;;;;1882124;28;8043;-61
2022/12/27 07:39:48;;;;;;;;;;;;;;;;;;1884762;28;7126;-62
2022/12/27 07:40:45;;;;;;;;;;;;;;;;;;1888377;28;7029;-62
2022/12/27 07:41:43;;;;;;;;;;;;;;;;;;1888987;28;7080;-61
2022/12/27 07:42:40;;;;;;;;;;;;;;;;;;1888574;28;7211;-62
2022/12/27 07:43:40;;;;;;;;;;;;;;;;;;1883496;28;7213;-62
2022/12/27 07:44:37;;;;;;;;;;;;;;;;;;1883114;28;7010;-62
2022/12/27 07:45:35;;;;;;;;;;;;;;;;;;1887323;28;7130;-62
2022/12/27 07:46:32;;;;;;;;;;;;;;;;;;1889665;28;7006;-62
2022/12/27 07:47:30;;;;;;;;;;;;;;;;;;1890040;28;7034;-62
2022/12/27 07:48:27;;;;;;;;;;;;;;;;;;1883523;28;7006;-62
2022/12/27 07:49:24;;;;;;;;;;;;;;;;;;1883345;28;7309;-62
2022/12/27 07:50:22;;;;;;;;;;;;;;;;;;1886966;28;7062;-62
2022/12/27 07:51:19;;;;;;;;;;;;;;;;;;1884020;28;7006;-61
2022/12/27 07:52:16;;;;;;;;;;;;;;;;;;1886328;28;7122;-62
2022/12/27 07:53:14;;;;;;;;;;;;;;;;;;1887092;28;7129;-62
2022/12/27 07:54:11;;;;;;;;;;;;;;;;;;1883402;28;8327;-62
2022/12/27 07:55:09;;;;;;;;;;;;;;;;;;1887745;28;7005;-62
2022/12/27 07:56:13;;;;;;;;;;;;;;;;;;1888166;28;7098;-62
2022/12/27 07:57:17;;;;;;;;;;;;;;;;;;1887613;28;8088;-62
2022/12/27 07:58:15;;;;;;;;;;;;;;;;;;1881759;28;7110;-62
2022/12/27 07:59:13;;;;;;;;;;;;;;;;;;1882745;28;7101;-61
2022/12/27 08:00:11;;;;;;;;;;;;;;;;;;1885186;28;7089;-63
2022/12/27 08:01:09;;;;;;;;;;;;;;;;;;1889922;28;7010;-62
2022/12/27 08:02:08;;;;;;;;;;;;;;;;;;1881461;28;7039;-61
2022/12/27 08:03:05;;;;;;;;;;;;;;;;;;1881647;28;7046;-62
2022/12/27 08:04:03;;;;;;;;;;;;;;;;;;1887521;28;7740;-62
2022/12/27 08:05:00;;;;;;;;;;;;;;;;;;1883638;28;7006;-61
2022/12/27 08:05:58;;;;;;;;;;;;;;;;;;1888402;28;8087;-61
2022/12/27 08:07:00;;;;;;;;;;;;;;;;;;1887316;28;7001;-62
2022/12/27 08:08:00;;;;;;;;;;;;;;;;;;1889974;28;7096;-62
2022/12/27 08:08:59;;;;;;;;;;;;;;;;;;1889643;28;7352;-62
2022/12/27 08:09:57;;;;;;;;;;;;;;;;;;1889656;28;7042;-61
2022/12/27 08:10:54;;;;;;;;;;;;;;;;;;1884872;28;7221;-62
2022/12/27 08:11:58;;;;;;;;;;;;;;;;;;1889936;28;7084;-61
2022/12/27 08:12:55;;;;;;;;;;;;;;;;;;1888224;28;8006;-62
2022/12/27 08:13:54;;;;;;;;;;;;;;;;;;1881512;28;7084;-62
2022/12/27 08:14:51;;;;;;;;;;;;;;;;;;1882390;28;7006;-62
2022/12/27 08:15:51;;;;;;;;;;;;;;;;;;1888563;28;7149;-62
2022/12/27 08:16:48;;;;;;;;;;;;;;;;;;1888771;28;7106;-62
2022/12/27 08:17:46;;;;;;;;;;;;;;;;;;1888999;28;7347;-62
2022/12/27 08:18:43;;;;;;;;;;;;;;;;;;1889179;28;8116;-62
2022/12/27 08:19:41;;;;;;;;;;;;;;;;;;1887308;28;7148;-63
2022/12/27 08:20:38;;;;;;;;;;;;;;;;;;1889184;28;8012;-61
2022/12/27 08:21:36;;;;;;;;;;;;;;;;;;1888332;28;7021;-62
2022/12/27 08:22:33;;;;;;;;;;;;;;;;;;1884707;28;7089;-62
2022/12/27 08:23:31;;;;;;;;;;;;;;;;;;1882514;28;7088;-62
2022/12/27 08:24:28;;;;;;;;;;;;;;;;;;1888901;28;7025;-62
2022/12/27 08:25:27;;;;;;;;;;;;;;;;;;1882318;28;7995;-62
2022/12/27 08:26:24;;;;;;;;;;;;;;;;;;1882382;28;8083;-61
2022/12/27 08:27:23;;;;;;;;;;;;;;;;;;1883929;28;7043;-61
2022/12/27 08:28:20;;;;;;;;;;;;;;;;;;1886359;28;7096;-61
2022/12/27 08:29:17;;;;;;;;;;;;;;;;;;1883691;28;7021;-62
2022/12/27 08:30:15;;;;;;;;;;;;;;;;;;1888952;28;7136;-62
2022/12/27 08:31:12;;;;;;;;;;;;;;;;;;1888650;28;9076;-62
2022/12/27 08:32:10;;;;;;;;;;;;;;;;;;1882214;28;8010;-62